Terminal Aerodrome Forecast
Issued by NWS Wakefield, VA

Home | Current Version | Previous Version | Text Only | Print | Product List | Glossary On
Versions: 1 2 3 4 5 6 7 8 9 10 11 12 13 14 15 16 17 18 19 20
000
FTUS41 KAKQ 012339
TAFECG
TAF
KECG 012339Z 0200/0224 16003KT P6SM SCT250
     FM020200 VRB03KT P6SM BKN025
     FM020700 00000KT 3SM BR OVC015
     FM021300 VRB03KT 5SM BR SCT025
     FM021600 16005KT P6SM SCT250=

USA.gov is the U.S. government's official web portal to all federal, state and local government web resources and services.